createdAt,value
2018-04-13T00:02:47.372Z,76.40
2018-04-13T00:07:48.323Z,76.67
2018-04-13T00:12:49.287Z,76.00
2018-04-13T00:17:56.467Z,76.21
2018-04-13T00:22:57.419Z,76.28
2018-04-13T00:27:58.381Z,76.54
2018-04-13T00:33:05.357Z,76.75
2018-04-13T00:38:06.326Z,76.25
2018-04-13T00:43:07.302Z,75.76
2018-04-13T00:48:08.280Z,76.31
2018-04-13T00:53:21.563Z,77.42
2018-04-13T00:58:22.528Z,77.46
2018-04-13T01:03:23.511Z,77.39
2018-04-13T01:08:24.484Z,77.22
2018-04-13T01:13:25.416Z,76.09
2018-04-13T01:18:26.420Z,76.76
2018-04-13T01:23:27.377Z,76.17
2018-04-13T01:28:28.356Z,77.05
2018-04-13T01:33:35.486Z,77.15
2018-04-13T01:38:42.584Z,77.09
2018-04-13T01:43:43.581Z,76.63
2018-04-13T01:48:44.521Z,76.55
2018-04-13T01:53:51.618Z,77.82
2018-04-13T01:58:52.570Z,77.17
2018-04-13T02:03:59.691Z,77.62
2018-04-13T02:09:06.811Z,77.91
2018-04-13T02:14:13.903Z,77.15
2018-04-13T02:19:14.890Z,77.53
2018-04-13T02:24:15.862Z,77.21
2018-04-13T02:29:16.840Z,77.22
2018-04-13T02:34:24.098Z,77.77
2018-04-13T02:39:24.962Z,77.46
2018-04-13T02:44:25.929Z,77.70
2018-04-13T02:49:32.956Z,77.90
2018-04-13T02:54:33.927Z,77.30
2018-04-13T02:59:40.910Z,78.06
2018-04-13T03:04:41.874Z,77.73
2018-04-13T03:09:42.823Z,77.21
2018-04-13T03:14:43.791Z,76.65
2018-04-13T03:19:50.970Z,77.62
2018-04-13T03:24:51.947Z,78.23
2018-04-13T03:29:52.911Z,78.13
2018-04-13T03:34:59.892Z,77.43
2018-04-13T03:40:00.863Z,77.55
2018-04-13T03:45:01.835Z,76.99
2018-04-13T03:50:02.814Z,77.63
2018-04-13T03:55:09.944Z,77.94
2018-04-13T04:00:10.906Z,78.90
2018-04-13T04:05:17.934Z,78.65
2018-04-13T04:10:18.884Z,78.99
2018-04-13T04:15:19.828Z,78.93
2018-04-13T04:20:33.125Z,79.38
2018-04-13T04:25:52.332Z,78.74
2018-04-13T04:30:53.283Z,79.43
2018-04-13T04:35:54.237Z,78.73
2018-04-13T04:40:55.190Z,78.28
2018-04-13T04:46:02.331Z,78.51
2018-04-13T04:51:03.267Z,77.88
2018-04-13T04:56:04.279Z,79.00
2018-04-13T05:01:05.250Z,78.46
2018-04-13T05:06:06.189Z,79.07
2018-04-13T05:11:07.133Z,78.68
2018-04-13T05:16:20.344Z,78.71
2018-04-13T05:21:27.463Z,79.14
2018-04-13T05:26:28.439Z,79.72
2018-04-13T05:31:29.392Z,79.86
2018-04-13T05:36:30.343Z,80.56
2018-04-13T05:41:31.324Z,79.87
2018-04-13T05:46:32.268Z,80.86
2018-04-13T05:51:33.219Z,80.12
2018-04-13T05:56:46.201Z,79.56
2018-04-13T06:01:47.150Z,80.11
2018-04-13T06:06:54.202Z,79.71
2018-04-13T06:11:55.173Z,79.76
2018-04-13T06:17:02.160Z,80.59
2018-04-13T06:22:03.160Z,80.64
2018-04-13T06:27:04.133Z,80.00
2018-04-13T06:32:11.256Z,79.36
2018-04-13T06:37:12.211Z,79.56
2018-04-13T06:42:19.154Z,80.08
2018-04-13T06:47:26.127Z,79.82
2018-04-13T06:52:27.137Z,81.04
2018-04-13T06:57:34.213Z,79.65
2018-04-13T07:02:35.201Z,79.40
2018-04-13T07:07:36.179Z,78.87
2018-04-13T07:12:37.141Z,79.66
2018-04-13T07:17:38.098Z,79.49
2018-04-13T07:22:52.176Z,78.36
2018-04-13T07:27:59.232Z,80.41
2018-04-13T07:33:00.210Z,80.50
2018-04-13T07:38:01.159Z,79.16
2018-04-13T07:43:02.124Z,78.12
2018-04-13T07:48:03.095Z,77.44
2018-04-13T07:53:04.084Z,76.74
2018-04-13T07:58:11.025Z,75.99
2018-04-13T08:03:18.141Z,77.51
2018-04-13T08:08:19.337Z,76.73
2018-04-13T08:13:20.085Z,75.99
2018-04-13T08:18:21.068Z,76.86
2018-04-13T08:23:28.183Z,76.57
2018-04-13T08:28:29.132Z,75.71
2018-04-13T08:33:30.110Z,76.18
2018-04-13T08:38:31.068Z,75.04
2018-04-13T08:43:32.061Z,74.24
2018-04-13T08:48:39.155Z,73.79
2018-04-13T08:53:40.063Z,71.44
2018-04-13T08:58:47.176Z,71.98
2018-04-13T09:03:54.374Z,71.71
2018-04-13T09:08:55.332Z,71.46
2018-04-13T09:13:56.308Z,71.03
2018-04-13T09:18:57.253Z,70.91
2018-04-13T09:23:58.247Z,71.58
2018-04-13T09:28:59.186Z,70.81
2018-04-13T09:34:06.260Z,70.35
2018-04-13T09:39:13.164Z,70.73
2018-04-13T09:44:20.198Z,70.42
2018-04-13T09:49:21.164Z,70.63
2018-04-13T09:54:22.127Z,70.86
2018-04-13T09:59:23.087Z,71.94
2018-04-13T10:04:30.171Z,72.37
2018-04-13T10:09:37.322Z,72.18
2018-04-13T10:14:44.524Z,71.59
2018-04-13T10:19:45.493Z,72.39
2018-04-13T10:24:46.510Z,72.25
2018-04-13T10:29:53.521Z,71.71
2018-04-13T10:34:54.477Z,71.25
2018-04-13T10:39:55.767Z,70.81
2018-04-13T10:44:56.732Z,69.57
2018-04-13T10:50:03.929Z,69.48
2018-04-13T10:55:11.036Z,70.41
2018-04-13T11:00:11.994Z,70.24
2018-04-13T11:05:12.956Z,71.10
2018-04-13T11:10:20.036Z,71.37
2018-04-13T11:15:20.981Z,72.30
2018-04-13T11:20:21.953Z,72.72
2018-04-13T11:25:29.226Z,72.92
2018-04-13T11:30:36.196Z,72.41
2018-04-13T11:35:37.166Z,72.69
2018-04-13T11:40:44.250Z,71.33
2018-04-13T11:45:45.235Z,69.80
2018-04-13T11:50:46.669Z,69.98
2018-04-13T11:55:47.651Z,67.66
2018-04-13T12:00:48.814Z,68.10
2018-04-13T12:05:56.093Z,68.49
2018-04-13T12:10:57.036Z,69.36
2018-04-13T12:15:58.015Z,71.09
2018-04-13T12:20:58.963Z,72.47
2018-04-13T12:26:00.026Z,72.19
2018-04-13T12:31:01.020Z,75.06
2018-04-13T12:36:02.038Z,74.68
2018-04-13T12:41:03.022Z,74.64
2018-04-13T12:46:04.027Z,74.57
2018-04-13T12:51:05.061Z,74.59
2018-04-13T12:56:06.098Z,75.05
2018-04-13T13:01:07.048Z,73.47
2018-04-13T13:06:08.024Z,72.92
2018-04-13T13:11:09.033Z,73.10
2018-04-13T13:16:10.043Z,74.27
2018-04-13T13:21:11.090Z,75.72
2018-04-13T13:26:12.092Z,76.58
2018-04-13T13:31:13.102Z,74.86
2018-04-13T13:36:14.121Z,74.52
2018-04-13T13:41:15.129Z,73.91
2018-04-13T13:46:16.134Z,74.46
2018-04-13T13:51:17.131Z,75.30
2018-04-13T13:56:18.162Z,75.89
2018-04-13T14:01:19.167Z,76.57
2018-04-13T14:06:20.147Z,76.08
2018-04-13T14:11:21.130Z,75.38
2018-04-13T14:16:22.125Z,74.23
2018-04-13T14:21:23.176Z,74.88
2018-04-13T14:26:24.223Z,75.78
2018-04-13T14:31:25.203Z,77.03
2018-04-13T14:36:26.216Z,77.61
2018-04-13T14:41:27.218Z,77.43
2018-04-13T14:46:28.259Z,77.48
2018-04-13T14:51:29.265Z,78.11
2018-04-13T14:56:30.259Z,77.82
2018-04-13T15:01:31.235Z,77.94
2018-04-13T15:06:32.269Z,78.10
2018-04-13T15:11:33.231Z,77.73
2018-04-13T15:16:34.231Z,78.02
2018-04-13T15:21:35.211Z,78.52
2018-04-13T15:26:36.251Z,78.10
2018-04-13T15:31:37.237Z,78.34
2018-04-13T15:36:38.273Z,80.36
2018-04-13T15:41:39.248Z,77.69
2018-04-13T15:46:40.267Z,78.13
2018-04-13T15:51:41.282Z,77.16
2018-04-13T15:56:42.288Z,76.99
2018-04-13T16:01:43.275Z,76.43
2018-04-13T16:06:44.308Z,76.94
2018-04-13T16:11:45.278Z,77.03
2018-04-13T16:16:46.292Z,76.64
2018-04-13T16:21:47.279Z,77.18
2018-04-13T16:26:48.311Z,75.26
2018-04-13T16:31:49.308Z,75.73
2018-04-13T16:36:50.316Z,75.81
2018-04-13T16:41:51.298Z,75.32
2018-04-13T16:46:52.320Z,75.17
2018-04-13T16:51:53.335Z,75.45
2018-04-13T16:56:54.355Z,76.42
2018-04-13T17:01:55.355Z,75.50
2018-04-13T17:06:56.366Z,74.55
2018-04-13T17:11:57.333Z,75.60
2018-04-13T17:16:58.366Z,74.79
2018-04-13T17:21:59.344Z,75.33
2018-04-13T17:27:00.354Z,74.94
2018-04-13T17:32:01.395Z,75.35
2018-04-13T17:37:02.375Z,74.69
2018-04-13T17:42:03.406Z,75.32
2018-04-13T17:47:04.437Z,75.50
2018-04-13T17:52:05.472Z,75.58
2018-04-13T17:57:06.489Z,75.10
2018-04-13T18:02:07.544Z,75.76
2018-04-13T18:07:08.550Z,74.68
2018-04-13T18:12:09.562Z,74.63
2018-04-13T18:17:10.553Z,74.85
2018-04-13T18:22:11.575Z,74.96
2018-04-13T18:27:12.608Z,75.70
2018-04-13T18:32:13.603Z,74.28
2018-04-13T18:37:14.595Z,74.64
2018-04-13T18:42:15.598Z,75.29
2018-04-13T18:47:16.640Z,74.73
2018-04-13T18:52:17.694Z,74.64
2018-04-13T18:57:18.737Z,75.01
2018-04-13T19:02:19.747Z,75.20
2018-04-13T19:07:20.737Z,75.22
2018-04-13T19:12:21.769Z,76.09
2018-04-13T19:17:22.817Z,74.60
2018-04-13T19:22:23.862Z,75.84
2018-04-13T19:27:24.921Z,76.03
2018-04-13T19:32:25.955Z,74.72
2018-04-13T19:37:27.062Z,73.97
2018-04-13T19:42:28.075Z,75.46
2018-04-13T19:47:29.125Z,74.58
2018-04-13T19:52:30.144Z,74.47
2018-04-13T19:57:31.203Z,74.22
2018-04-13T20:02:32.238Z,74.37
2018-04-13T20:07:33.327Z,74.68
2018-04-13T20:12:34.351Z,74.49
2018-04-13T20:17:35.401Z,75.34
2018-04-13T20:22:36.380Z,75.46
2018-04-13T20:27:37.455Z,74.62
2018-04-13T20:32:38.467Z,74.86
2018-04-13T20:37:39.519Z,74.74
2018-04-13T20:42:40.516Z,74.85
2018-04-13T20:47:41.536Z,74.89
2018-04-13T20:52:42.528Z,76.81
2018-04-13T20:57:43.577Z,75.26
2018-04-13T21:02:44.606Z,74.95
2018-04-13T21:07:45.618Z,75.33
2018-04-13T21:12:46.645Z,75.92
2018-04-13T21:17:47.632Z,75.00
2018-04-13T21:22:48.626Z,76.02
2018-04-13T21:27:49.639Z,78.16
2018-04-13T21:32:50.645Z,77.88
2018-04-13T21:37:51.623Z,77.31
2018-04-13T21:42:52.617Z,77.06
2018-04-13T21:47:53.597Z,76.71
2018-04-13T21:52:54.605Z,76.69
2018-04-13T21:57:55.613Z,78.79
2018-04-13T22:02:56.562Z,77.23
2018-04-13T22:07:57.601Z,77.01
2018-04-13T22:13:11.269Z,77.86
2018-04-13T22:18:13.305Z,78.29
2018-04-13T22:23:14.300Z,77.88
2018-04-13T22:28:15.333Z,78.41
2018-04-13T22:33:16.321Z,78.65
2018-04-13T22:38:17.308Z,78.84
2018-04-13T22:43:18.280Z,78.80
2018-04-13T22:48:19.264Z,78.54
2018-04-13T22:53:20.225Z,78.81
2018-04-13T22:58:21.243Z,79.59
2018-04-13T23:03:22.225Z,79.61
2018-04-13T23:08:23.305Z,78.28
2018-04-13T23:13:24.303Z,78.23
2018-04-13T23:18:25.284Z,78.88
2018-04-13T23:23:26.265Z,81.41
2018-04-13T23:28:27.272Z,78.90
2018-04-13T23:33:28.244Z,78.15
2018-04-13T23:38:29.237Z,77.41
2018-04-13T23:43:30.195Z,78.89
2018-04-13T23:48:31.167Z,77.42
2018-04-13T23:53:32.125Z,76.47
2018-04-13T23:58:33.100Z,77.93
